createdAt,value
2023-08-28T00:01:39.237Z,12.55
2023-08-28T00:04:08.082Z,12.51
2023-08-28T00:06:35.950Z,11.79
2023-08-28T00:09:03.910Z,11.89
2023-08-28T00:11:31.662Z,11.79
2023-08-28T00:13:59.789Z,12.25
2023-08-28T00:16:27.518Z,12.07
2023-08-28T00:18:56.062Z,12.04
2023-08-28T00:21:23.969Z,12.25
2023-08-28T00:23:51.745Z,11.55
2023-08-28T00:26:19.447Z,11.75
2023-08-28T00:28:47.198Z,11.90
2023-08-28T00:31:14.929Z,11.52
2023-08-28T00:33:42.710Z,11.71
2023-08-28T00:36:10.460Z,11.66
2023-08-28T00:38:38.241Z,11.57
2023-08-28T00:41:07.812Z,11.74
2023-08-28T00:43:35.626Z,11.72
2023-08-28T00:46:04.507Z,11.79
2023-08-28T00:48:33.810Z,11.42
2023-08-28T00:51:02.524Z,11.22
2023-08-28T00:53:30.359Z,11.54
2023-08-28T00:55:58.263Z,11.05
2023-08-28T00:58:26.147Z,11.39
2023-08-28T01:00:53.828Z,11.54
2023-08-28T01:03:23.002Z,11.41
2023-08-28T01:06:18.495Z,11.38
2023-08-28T01:09:16.553Z,11.04
2023-08-28T01:12:08.028Z,11.01
2023-08-28T01:15:08.291Z,10.91
2023-08-28T01:17:39.503Z,11.03
2023-08-28T01:20:14.132Z,11.51
2023-08-28T01:23:12.928Z,11.60
2023-08-28T01:25:41.179Z,11.69
2023-08-28T01:28:10.066Z,11.65
2023-08-28T01:30:37.828Z,11.49
2023-08-28T01:33:05.859Z,11.39
2023-08-28T01:35:34.553Z,11.19
2023-08-28T01:38:30.355Z,11.19
2023-08-28T01:41:12.442Z,11.13
2023-08-28T01:43:47.690Z,11.16
2023-08-28T01:46:17.114Z,10.92
2023-08-28T01:48:54.968Z,10.86
2023-08-28T01:51:23.767Z,11.54
2023-08-28T01:53:53.639Z,11.56
2023-08-28T01:56:25.608Z,11.43
2023-08-28T01:58:56.506Z,11.00
2023-08-28T02:01:26.912Z,10.99
2023-08-28T02:03:55.017Z,11.15
2023-08-28T02:06:23.082Z,11.23
2023-08-28T02:08:50.937Z,11.72
2023-08-28T02:11:18.746Z,11.60
2023-08-28T02:13:46.729Z,11.84
2023-08-28T02:16:15.112Z,11.66
2023-08-28T02:18:43.145Z,11.27
2023-08-28T02:21:10.874Z,11.46
2023-08-28T02:23:38.718Z,11.92
2023-08-28T02:26:06.487Z,11.33
2023-08-28T02:28:34.316Z,11.22
2023-08-28T02:31:04.815Z,12.01
2023-08-28T02:33:33.577Z,11.81
2023-08-28T02:36:02.707Z,11.51
2023-08-28T02:38:30.649Z,11.38
2023-08-28T02:41:06.618Z,11.53
2023-08-28T02:43:35.313Z,11.93
2023-08-28T02:46:03.915Z,11.44
2023-08-28T02:48:31.876Z,11.72
2023-08-28T02:51:00.821Z,11.23
2023-08-28T02:53:29.082Z,11.22
2023-08-28T02:56:18.571Z,11.44
2023-08-28T02:58:46.709Z,10.75
2023-08-28T03:01:14.550Z,10.29
2023-08-28T03:03:42.425Z,10.41
2023-08-28T03:06:10.341Z,10.58
2023-08-28T03:08:38.165Z,10.69
2023-08-28T03:11:05.949Z,10.54
2023-08-28T03:13:33.791Z,10.57
2023-08-28T03:16:01.752Z,10.58
2023-08-28T03:18:29.672Z,10.83
2023-08-28T03:20:57.548Z,10.71
2023-08-28T03:23:25.429Z,10.58
2023-08-28T03:25:54.942Z,10.93
2023-08-28T03:28:22.652Z,10.73
2023-08-28T03:30:50.404Z,10.81
2023-08-28T03:33:18.275Z,11.00
2023-08-28T03:35:46.052Z,12.44
2023-08-28T03:38:14.637Z,13.19
2023-08-28T03:40:42.423Z,13.54
2023-08-28T03:43:10.231Z,13.64
2023-08-28T03:45:39.474Z,13.41
2023-08-28T03:48:07.841Z,11.93
2023-08-28T03:50:36.384Z,12.28
2023-08-28T03:53:05.514Z,12.77
2023-08-28T03:55:33.910Z,12.35
2023-08-28T03:58:04.996Z,12.10
2023-08-28T04:00:34.133Z,11.94
2023-08-28T04:03:02.645Z,12.21
2023-08-28T04:05:34.217Z,12.45
2023-08-28T04:08:02.386Z,11.81
2023-08-28T04:10:30.187Z,12.07
2023-08-28T04:13:00.421Z,12.32
2023-08-28T04:15:29.234Z,11.77
2023-08-28T04:17:58.919Z,11.84
2023-08-28T04:20:26.857Z,11.79
2023-08-28T04:22:55.342Z,12.35
2023-08-28T04:25:23.297Z,12.09
2023-08-28T04:27:51.068Z,12.43
2023-08-28T04:30:19.530Z,12.28
2023-08-28T04:32:47.398Z,11.71
2023-08-28T04:35:15.436Z,11.81
2023-08-28T04:37:43.253Z,12.53
2023-08-28T04:40:11.832Z,12.40
2023-08-28T04:42:39.602Z,12.45
2023-08-28T04:45:08.017Z,12.86
2023-08-28T04:47:36.515Z,13.33
2023-08-28T04:50:04.793Z,12.91
2023-08-28T04:52:32.851Z,12.24
2023-08-28T04:55:01.337Z,12.39
2023-08-28T04:57:29.188Z,11.63
2023-08-28T04:59:57.030Z,11.65
2023-08-28T05:02:25.416Z,10.98
2023-08-28T05:04:53.200Z,11.08
2023-08-28T05:07:22.856Z,10.99
2023-08-28T05:09:50.590Z,11.57
2023-08-28T05:12:20.310Z,11.90
2023-08-28T05:14:49.183Z,12.00
2023-08-28T05:17:17.218Z,11.95
2023-08-28T05:19:45.001Z,12.06
2023-08-28T05:22:12.840Z,11.70
2023-08-28T05:24:41.253Z,11.41
2023-08-28T05:27:09.580Z,11.47
2023-08-28T05:29:37.409Z,11.39
2023-08-28T05:32:05.778Z,11.11
2023-08-28T05:34:33.737Z,10.63
2023-08-28T05:37:01.513Z,10.57
2023-08-28T05:39:29.305Z,10.43
2023-08-28T05:41:57.045Z,10.94
2023-08-28T05:44:26.530Z,11.15
2023-08-28T05:46:54.391Z,11.64
2023-08-28T05:49:22.361Z,11.70
2023-08-28T05:51:50.187Z,11.45
2023-08-28T05:54:17.935Z,11.51
2023-08-28T05:56:45.808Z,11.44
2023-08-28T05:59:13.608Z,11.53
2023-08-28T06:01:42.329Z,11.53
2023-08-28T06:04:10.369Z,11.57
2023-08-28T06:06:39.783Z,12.09
2023-08-28T06:09:08.792Z,12.05
2023-08-28T06:11:36.606Z,12.96
2023-08-28T06:14:06.191Z,12.23
2023-08-28T06:16:34.811Z,12.84
2023-08-28T06:19:04.743Z,13.01
2023-08-28T06:21:33.570Z,12.82
2023-08-28T06:24:01.610Z,12.25
2023-08-28T06:26:29.472Z,13.13
2023-08-28T06:28:59.074Z,12.63
2023-08-28T06:31:26.819Z,12.83
2023-08-28T06:33:54.519Z,13.25
2023-08-28T06:36:22.274Z,13.15
2023-08-28T06:38:53.186Z,13.46
2023-08-28T06:41:21.044Z,13.09
2023-08-28T06:43:49.888Z,13.08
2023-08-28T06:46:17.714Z,13.27
2023-08-28T06:48:45.442Z,13.93
2023-08-28T06:51:13.209Z,14.05
2023-08-28T06:53:41.118Z,14.28
2023-08-28T06:56:09.385Z,13.87
2023-08-28T06:58:37.371Z,14.53
2023-08-28T07:01:05.510Z,14.85
2023-08-28T07:03:33.417Z,15.58
2023-08-28T07:06:01.254Z,15.23
2023-08-28T07:08:28.990Z,15.29
2023-08-28T07:10:56.929Z,15.58
2023-08-28T07:13:24.962Z,14.67
2023-08-28T07:15:52.571Z,14.85
2023-08-28T07:18:20.410Z,14.24
2023-08-28T07:20:48.334Z,14.22
2023-08-28T07:23:16.193Z,14.57
2023-08-28T07:25:45.517Z,14.52
2023-08-28T07:28:13.610Z,14.32
2023-08-28T07:30:43.084Z,14.27
2023-08-28T07:33:11.371Z,14.18
2023-08-28T07:35:42.890Z,14.85
2023-08-28T07:38:10.772Z,14.81
2023-08-28T07:40:38.515Z,14.67
2023-08-28T07:43:06.473Z,14.37
2023-08-28T07:45:34.288Z,14.18
2023-08-28T07:48:02.059Z,14.77
2023-08-28T07:50:31.890Z,14.90
2023-08-28T07:52:59.686Z,14.98
2023-08-28T07:55:27.987Z,14.83
2023-08-28T07:57:56.739Z,14.64
2023-08-28T08:00:24.949Z,16.23
2023-08-28T08:02:53.438Z,16.76
2023-08-28T08:05:21.452Z,15.31
2023-08-28T08:07:50.227Z,14.59
2023-08-28T08:10:18.032Z,14.24
2023-08-28T08:12:46.311Z,15.31
2023-08-28T08:15:14.058Z,16.55
2023-08-28T08:17:43.867Z,16.20
2023-08-28T08:20:13.839Z,15.23
2023-08-28T08:22:43.559Z,15.84
2023-08-28T08:25:11.989Z,15.94
2023-08-28T08:27:45.757Z,15.60
2023-08-28T08:30:14.817Z,15.02
2023-08-28T08:32:47.248Z,14.40
2023-08-28T08:35:15.464Z,15.04
2023-08-28T08:37:43.191Z,15.17
2023-08-28T08:40:17.602Z,15.37
2023-08-28T08:42:45.914Z,15.56
2023-08-28T08:45:13.663Z,15.78
2023-08-28T08:47:48.200Z,16.18
2023-08-28T08:50:20.164Z,16.34
2023-08-28T08:52:49.180Z,16.08
2023-08-28T08:55:39.579Z,15.03
2023-08-28T08:58:11.967Z,14.70
2023-08-28T09:00:45.094Z,14.52
2023-08-28T09:03:15.437Z,14.58
2023-08-28T09:05:44.671Z,14.84
2023-08-28T09:08:17.031Z,15.23
2023-08-28T09:10:49.105Z,14.66
2023-08-28T09:13:17.139Z,15.15
2023-08-28T09:15:45.071Z,15.04
2023-08-28T09:18:13.364Z,14.94
2023-08-28T09:20:41.175Z,15.66
2023-08-28T09:23:09.035Z,15.80
2023-08-28T09:25:39.055Z,15.75
2023-08-28T09:28:06.983Z,16.13
2023-08-28T09:30:40.350Z,14.98
2023-08-28T09:33:09.630Z,14.71
2023-08-28T09:35:42.867Z,14.77
2023-08-28T09:38:12.124Z,15.80
2023-08-28T09:40:42.561Z,15.67
2023-08-28T09:43:14.899Z,14.76
2023-08-28T09:45:46.594Z,15.82
2023-08-28T09:48:15.437Z,16.15
2023-08-28T09:50:44.419Z,15.55
2023-08-28T09:53:16.666Z,16.66
2023-08-28T09:59:04.544Z,16.29
2023-08-28T10:01:36.329Z,16.75
2023-08-28T10:04:11.746Z,16.60
2023-08-28T10:06:52.135Z,16.41
2023-08-28T10:09:23.874Z,16.78
2023-08-28T10:11:52.158Z,16.94
2023-08-28T10:14:24.224Z,17.56
2023-08-28T10:17:02.169Z,17.48
2023-08-28T10:19:59.786Z,17.54
2023-08-28T10:22:29.795Z,17.37
2023-08-28T10:24:59.503Z,17.73
2023-08-28T10:27:27.538Z,17.47
2023-08-28T10:29:57.053Z,17.24
2023-08-28T10:32:25.725Z,16.79
2023-08-28T10:34:55.069Z,17.21
2023-08-28T10:37:28.727Z,17.75
2023-08-28T10:40:03.282Z,17.61
2023-08-28T10:42:32.635Z,17.44
2023-08-28T10:45:02.591Z,18.94
2023-08-28T10:47:31.531Z,19.47
